createdAt,value
2022-12-19T00:01:57.473Z,-4.60
2022-12-19T00:04:25.052Z,-4.70
2022-12-19T00:06:52.578Z,-4.70
2022-12-19T00:09:19.725Z,-4.60
2022-12-19T00:11:48.863Z,-4.70
2022-12-19T00:14:16.256Z,-4.60
2022-12-19T00:16:43.590Z,-4.60
2022-12-19T00:19:13.928Z,-4.60
2022-12-19T00:21:41.206Z,-4.60
2022-12-19T00:24:15.770Z,-4.50
2022-12-19T00:26:48.471Z,-4.50
2022-12-19T00:29:16.221Z,-4.50
2022-12-19T00:31:43.727Z,-4.50
2022-12-19T00:34:11.324Z,-4.50
2022-12-19T00:36:38.590Z,-4.60
2022-12-19T00:39:08.471Z,-4.50
2022-12-19T00:41:41.466Z,-4.60
2022-12-19T00:44:17.436Z,-4.60
2022-12-19T00:46:47.399Z,-4.60
2022-12-19T00:49:22.616Z,-4.50
2022-12-19T00:51:49.879Z,-4.50
2022-12-19T00:54:17.235Z,-4.50
2022-12-19T00:56:44.969Z,-4.50
2022-12-19T00:59:12.390Z,-4.50
2022-12-19T01:01:41.953Z,-4.50
2022-12-19T01:04:30.714Z,-4.50
2022-12-19T01:07:01.886Z,-4.50
2022-12-19T01:09:29.527Z,-4.60
2022-12-19T01:12:15.345Z,-4.60
2022-12-19T01:14:43.249Z,-4.60
2022-12-19T01:17:10.672Z,-4.60
2022-12-19T01:19:43.593Z,-4.60
2022-12-19T01:22:13.111Z,-4.60
2022-12-19T01:24:40.735Z,-4.60
2022-12-19T01:27:08.048Z,-4.60
2022-12-19T01:29:37.621Z,-4.60
2022-12-19T01:32:19.143Z,-4.50
2022-12-19T01:34:46.717Z,-4.60
2022-12-19T01:37:14.204Z,-4.60
2022-12-19T01:39:41.635Z,-4.50
2022-12-19T01:42:23.471Z,-4.50
2022-12-19T01:45:13.415Z,-4.50
2022-12-19T01:48:10.597Z,-4.50
2022-12-19T01:51:01.726Z,-4.50
2022-12-19T01:53:48.207Z,-4.50
2022-12-19T01:56:19.735Z,-4.50
2022-12-19T01:58:48.104Z,-4.50
2022-12-19T02:01:19.348Z,-4.40
2022-12-19T02:03:47.673Z,-4.40
2022-12-19T02:06:15.505Z,-4.40
2022-12-19T02:08:47.579Z,-4.40
2022-12-19T02:11:15.125Z,-4.40
2022-12-19T02:13:43.595Z,-4.40
2022-12-19T02:16:35.327Z,-4.30
2022-12-19T02:19:36.815Z,-4.40
2022-12-19T02:22:42.791Z,-4.30
2022-12-19T02:25:18.545Z,-4.30
2022-12-19T02:28:16.830Z,-4.30
2022-12-19T02:30:53.995Z,-4.30
2022-12-19T02:33:33.225Z,-4.30
2022-12-19T02:36:18.739Z,-4.30
2022-12-19T02:39:07.455Z,-4.20
2022-12-19T02:41:46.530Z,-4.20
2022-12-19T02:44:37.009Z,-4.20
2022-12-19T02:47:05.830Z,-4.20
2022-12-19T02:49:35.569Z,-4.20
2022-12-19T02:52:32.883Z,-4.20
2022-12-19T02:55:15.243Z,-4.10
2022-12-19T02:58:09.177Z,-4.10
2022-12-19T03:00:49.334Z,-4.10
2022-12-19T03:03:27.294Z,-4.10
2022-12-19T03:06:09.989Z,-4.10
2022-12-19T03:08:49.348Z,-4.10
2022-12-19T03:11:17.319Z,-4.10
2022-12-19T03:14:02.145Z,-4.10
2022-12-19T03:16:29.586Z,-4.10
2022-12-19T03:19:04.724Z,-4.10
2022-12-19T03:21:45.466Z,-4.10
2022-12-19T03:24:14.962Z,-4.00
2022-12-19T03:27:24.449Z,-4.00
2022-12-19T03:30:03.028Z,-4.00
2022-12-19T03:32:31.716Z,-3.90
2022-12-19T03:35:27.233Z,-3.90
2022-12-19T03:38:01.835Z,-4.00
2022-12-19T03:40:30.739Z,-3.90
2022-12-19T03:43:12.290Z,-3.90
2022-12-19T03:46:11.127Z,-3.90
2022-12-19T03:48:47.819Z,-3.90
2022-12-19T03:51:31.397Z,-3.80
2022-12-19T03:54:03.823Z,-3.80
2022-12-19T03:56:34.186Z,-3.80
2022-12-19T03:59:19.011Z,-3.80
2022-12-19T04:01:48.051Z,-3.90
2022-12-19T04:04:16.111Z,-3.80
2022-12-19T04:06:45.421Z,-3.80
2022-12-19T04:09:17.936Z,-3.80
2022-12-19T04:12:01.034Z,-3.80
2022-12-19T04:14:34.750Z,-3.70
2022-12-19T04:17:10.893Z,-3.70
2022-12-19T04:19:45.113Z,-3.70
2022-12-19T04:22:28.111Z,-3.70
2022-12-19T04:24:57.497Z,-3.70
2022-12-19T04:27:24.980Z,-3.60
2022-12-19T04:29:56.140Z,-3.60
2022-12-19T04:32:25.571Z,-3.60
2022-12-19T04:34:52.925Z,-3.60
2022-12-19T04:37:20.360Z,-3.60
2022-12-19T04:39:47.793Z,-3.60
2022-12-19T04:42:15.202Z,-3.60
2022-12-19T04:44:42.423Z,-3.60
2022-12-19T04:47:09.797Z,-3.60
2022-12-19T04:49:37.031Z,-3.60
2022-12-19T04:52:04.345Z,-3.60
2022-12-19T04:54:33.795Z,-3.60
2022-12-19T04:57:01.506Z,-3.60
2022-12-19T04:59:28.877Z,-3.60
2022-12-19T05:01:56.296Z,-3.60
2022-12-19T05:04:26.587Z,-3.60
2022-12-19T05:06:54.738Z,-3.60
2022-12-19T05:09:22.315Z,-3.60
2022-12-19T05:11:50.982Z,-3.60
2022-12-19T05:14:21.490Z,-3.50
2022-12-19T05:16:49.777Z,-3.50
2022-12-19T05:19:19.050Z,-3.60
2022-12-19T05:21:46.310Z,-3.60
2022-12-19T05:24:16.517Z,-3.50
2022-12-19T05:26:44.204Z,-3.60
2022-12-19T05:29:11.601Z,-3.50
2022-12-19T05:31:39.037Z,-3.40
2022-12-19T05:34:06.569Z,-3.40
2022-12-19T05:36:33.873Z,-3.50
2022-12-19T05:39:01.327Z,-3.40
2022-12-19T05:41:28.602Z,-3.40
2022-12-19T05:43:57.064Z,-3.40
2022-12-19T05:46:25.070Z,-3.40
2022-12-19T05:48:52.252Z,-3.40
2022-12-19T05:51:19.540Z,-3.40
2022-12-19T05:53:46.763Z,-3.30
2022-12-19T05:56:19.980Z,-3.30
2022-12-19T05:58:47.929Z,-3.40
2022-12-19T06:01:23.565Z,-3.30
2022-12-19T06:03:51.686Z,-3.30
2022-12-19T06:06:21.401Z,-3.30
2022-12-19T06:08:48.581Z,-3.30
2022-12-19T06:11:15.779Z,-3.30
2022-12-19T06:13:42.824Z,-3.30
2022-12-19T06:16:16.561Z,-3.30
2022-12-19T06:18:45.587Z,-3.20
2022-12-19T06:21:15.980Z,-3.20
2022-12-19T06:23:44.386Z,-3.30
2022-12-19T06:26:18.612Z,-3.20
2022-12-19T06:28:47.336Z,-3.30
2022-12-19T06:31:15.052Z,-3.20
2022-12-19T06:33:42.168Z,-3.20
2022-12-19T06:36:17.209Z,-3.20
2022-12-19T06:38:44.262Z,-3.20
2022-12-19T06:41:30.345Z,-3.20
2022-12-19T06:44:01.223Z,-3.20
2022-12-19T06:46:28.661Z,-3.20
2022-12-19T06:48:55.648Z,-3.20
2022-12-19T06:51:23.326Z,-3.10
2022-12-19T06:53:50.753Z,-3.10
2022-12-19T06:56:18.388Z,-3.10
2022-12-19T06:58:45.901Z,-3.10
2022-12-19T07:01:20.169Z,-3.10
2022-12-19T07:03:48.568Z,-3.10
2022-12-19T07:06:15.915Z,-3.10
2022-12-19T07:08:42.980Z,-3.10
2022-12-19T07:11:10.899Z,-3.10
2022-12-19T07:13:37.860Z,-3.10
2022-12-19T07:16:05.751Z,-3.00
2022-12-19T07:18:37.414Z,-3.00
2022-12-19T07:21:06.047Z,-2.90
2022-12-19T07:23:33.759Z,-2.90
2022-12-19T07:26:01.290Z,-2.90
2022-12-19T07:28:28.397Z,-2.80
2022-12-19T07:30:55.576Z,-2.80
2022-12-19T07:33:22.543Z,-2.70
2022-12-19T07:35:49.734Z,-2.70
2022-12-19T07:38:16.870Z,-2.70
2022-12-19T07:40:44.150Z,-2.70
2022-12-19T07:43:11.222Z,-2.60
2022-12-19T07:45:39.302Z,-2.60
2022-12-19T07:48:07.812Z,-2.60
2022-12-19T07:50:37.011Z,-2.50
2022-12-19T07:53:04.043Z,-2.50
2022-12-19T07:55:31.099Z,-2.40
2022-12-19T07:57:59.249Z,-2.40
2022-12-19T08:00:26.290Z,-2.40
2022-12-19T08:02:53.398Z,-2.40
2022-12-19T08:05:20.607Z,-2.40
2022-12-19T08:07:47.618Z,-2.40
2022-12-19T08:10:15.231Z,-2.30
2022-12-19T08:12:42.375Z,-2.20
2022-12-19T08:15:09.909Z,-2.20
2022-12-19T08:17:41.595Z,-2.20
2022-12-19T08:20:11.505Z,-2.10
2022-12-19T08:22:38.491Z,-2.10
2022-12-19T08:25:07.383Z,-2.10
2022-12-19T08:27:35.070Z,-2.00
2022-12-19T08:30:02.648Z,-2.00
2022-12-19T08:32:29.840Z,-2.00
2022-12-19T08:34:56.851Z,-1.90
2022-12-19T08:37:23.908Z,-1.90
2022-12-19T08:39:51.731Z,-1.80
2022-12-19T08:42:19.031Z,-1.80
2022-12-19T08:44:45.989Z,-1.80
2022-12-19T08:47:13.138Z,-1.70
2022-12-19T08:49:40.399Z,-1.70
2022-12-19T08:52:07.543Z,-1.70
2022-12-19T08:54:34.530Z,-1.60
2022-12-19T08:57:01.529Z,-1.60
2022-12-19T08:59:31.025Z,-1.50
2022-12-19T09:02:02.442Z,-1.40
2022-12-19T09:05:58.507Z,-1.40
2022-12-19T09:07:17.508Z,-1.30
2022-12-19T09:09:45.319Z,-1.20
2022-12-19T09:12:14.605Z,-1.10
2022-12-19T09:14:41.720Z,-1.10
2022-12-19T09:17:09.272Z,-1.00
2022-12-19T09:19:36.360Z,-0.90
2022-12-19T09:22:03.340Z,-0.90
2022-12-19T09:24:30.313Z,-0.70
2022-12-19T09:26:57.357Z,-0.70
2022-12-19T09:29:25.137Z,-0.60
2022-12-19T09:31:56.189Z,-0.50
2022-12-19T09:34:36.797Z,-0.30
2022-12-19T09:37:11.666Z,-0.20
2022-12-19T09:39:46.319Z,-0.10
2022-12-19T09:42:40.915Z,-0.10
2022-12-19T09:45:44.298Z,-0.20
2022-12-19T09:48:24.233Z,-0.20
2022-12-19T09:51:10.459Z,-0.10
2022-12-19T09:53:55.726Z,-0.20
2022-12-19T09:56:45.374Z,-0.10
2022-12-19T09:59:45.970Z,0.00
2022-12-19T10:02:38.939Z,0.00
2022-12-19T10:06:10.208Z,0.00
2022-12-19T10:08:24.427Z,0.10
2022-12-19T10:12:39.411Z,0.20
2022-12-19T10:14:50.589Z,0.30
2022-12-19T10:17:38.224Z,0.40
2022-12-19T10:20:20.541Z,0.50
2022-12-19T10:23:05.806Z,0.70
2022-12-19T10:25:41.816Z,0.90
2022-12-19T10:28:11.839Z,1.00
2022-12-19T10:31:18.885Z,1.00
2022-12-19T10:33:54.031Z,1.10
2022-12-19T10:36:42.056Z,1.20
2022-12-19T10:39:36.340Z,1.20
2022-12-19T10:42:14.649Z,1.20
2022-12-19T10:44:44.951Z,1.20
2022-12-19T10:47:16.440Z,1.30
2022-12-19T10:49:43.757Z,1.30
2022-12-19T10:52:12.730Z,1.30
2022-12-19T10:54:44.018Z,1.30
2022-12-19T10:57:28.251Z,1.20
2022-12-19T11:00:15.492Z,1.20
2022-12-19T11:02:46.585Z,1.20
2022-12-19T11:05:44.669Z,1.20
2022-12-19T11:08:21.129Z,1.30
2022-12-19T11:12:39.650Z,1.50
2022-12-19T11:18:09.784Z,1.60
2022-12-19T11:22:27.460Z,1.80
2022-12-19T11:29:27.068Z,1.80
2022-12-19T11:30:35.707Z,1.80
2022-12-19T11:30:45.506Z,1.70
2022-12-19T11:30:47.659Z,1.70
2022-12-19T11:32:31.479Z,1.70
2022-12-19T11:34:24.313Z,1.70
2022-12-19T11:37:22.300Z,1.70
2022-12-19T11:39:58.852Z,1.70
2022-12-19T11:43:41.479Z,1.80
2022-12-19T11:45:57.099Z,1.90
2022-12-19T11:48:25.968Z,1.90
2022-12-19T11:51:06.712Z,1.90
2022-12-19T11:54:04.945Z,2.00
2022-12-19T11:56:32.061Z,2.20
2022-12-19T11:59:11.684Z,2.20
2022-12-19T12:01:57.053Z,2.30
2022-12-19T12:04:39.030Z,2.30
2022-12-19T12:07:41.503Z,2.20
2022-12-19T12:12:35.095Z,2.20
2022-12-19T12:20:43.296Z,2.30
2022-12-19T12:29:48.366Z,2.40
2022-12-19T12:31:16.107Z,2.50
2022-12-19T12:31:19.170Z,2.40
2022-12-19T12:31:58.472Z,2.60
2022-12-19T12:32:05.063Z,2.60
2022-12-19T12:35:38.455Z,2.50
2022-12-19T12:38:26.624Z,2.50
2022-12-19T12:41:44.453Z,2.40
2022-12-19T12:44:12.869Z,2.50
2022-12-19T12:46:49.661Z,2.40
2022-12-19T12:50:03.636Z,2.40
2022-12-19T12:52:36.986Z,2.40
2022-12-19T12:55:13.877Z,2.40
2022-12-19T12:57:44.564Z,2.30
2022-12-19T13:00:20.423Z,2.40
2022-12-19T13:02:56.900Z,2.30
2022-12-19T13:05:35.593Z,2.10
2022-12-19T13:08:37.288Z,2.00
2022-12-19T13:11:51.247Z,2.00
2022-12-19T13:14:37.406Z,1.90
2022-12-19T13:17:08.364Z,2.00
2022-12-19T13:19:56.930Z,1.90
2022-12-19T13:22:29.869Z,2.00
2022-12-19T13:24:58.639Z,2.00
2022-12-19T13:27:34.266Z,1.90
2022-12-19T13:30:01.459Z,1.90
2022-12-19T13:32:55.001Z,1.80
2022-12-19T13:37:46.564Z,1.80
2022-12-19T13:40:00.639Z,1.80
2022-12-19T13:41:58.819Z,1.70
2022-12-19T13:44:27.126Z,1.70
2022-12-19T13:46:56.587Z,1.60
2022-12-19T13:49:34.337Z,1.50
2022-12-19T13:52:02.592Z,1.50
2022-12-19T13:54:34.855Z,1.50
2022-12-19T13:57:09.054Z,1.50
2022-12-19T13:59:39.178Z,1.50
2022-12-19T14:02:14.807Z,1.50
2022-12-19T14:04:42.149Z,1.50
2022-12-19T14:07:36.986Z,1.50
2022-12-19T14:11:33.653Z,1.50
2022-12-19T14:13:48.430Z,1.50
2022-12-19T14:16:40.189Z,1.50
2022-12-19T14:19:26.688Z,1.40
2022-12-19T14:22:07.321Z,1.40
2022-12-19T14:24:40.592Z,1.30
2022-12-19T14:28:26.197Z,1.20
2022-12-19T14:30:30.153Z,1.20
2022-12-19T14:33:44.432Z,1.10
2022-12-19T14:36:06.614Z,1.00
2022-12-19T14:39:23.669Z,1.00
2022-12-19T14:41:48.818Z,1.00
2022-12-19T14:52:35.215Z,0.90
2022-12-19T14:54:16.636Z,0.80
2022-12-19T14:54:18.171Z,0.90
2022-12-19T14:54:32.219Z,0.80
2022-12-19T14:56:33.599Z,0.70
2022-12-19T14:59:30.021Z,0.60
2022-12-19T15:02:06.203Z,0.60
2022-12-19T15:04:51.738Z,0.60
2022-12-19T15:07:29.699Z,0.50
2022-12-19T15:11:08.134Z,0.40
2022-12-19T15:14:52.493Z,0.40
2022-12-19T15:16:35.124Z,0.30
2022-12-19T15:19:03.325Z,0.30
2022-12-19T15:21:31.596Z,0.30
2022-12-19T15:23:58.587Z,0.30
2022-12-19T15:26:33.387Z,0.30
2022-12-19T15:29:02.019Z,0.30
2022-12-19T15:31:38.649Z,0.30
2022-12-19T15:34:40.102Z,0.20
2022-12-19T15:37:06.764Z,0.20
2022-12-19T15:39:33.730Z,0.10
2022-12-19T15:42:01.650Z,0.10
2022-12-19T15:44:41.222Z,0.10
2022-12-19T15:47:25.925Z,0.00
2022-12-19T15:49:52.952Z,0.00
2022-12-19T15:52:21.810Z,0.00
2022-12-19T15:54:50.512Z,0.00
2022-12-19T15:57:40.979Z,0.00
2022-12-19T16:00:23.295Z,-0.10
2022-12-19T16:05:38.505Z,0.10
2022-12-19T16:08:16.880Z,0.10
2022-12-19T16:10:46.006Z,0.10
2022-12-19T16:13:23.402Z,0.00
2022-12-19T16:15:51.931Z,0.10
2022-12-19T16:18:20.040Z,0.10
2022-12-19T16:20:47.959Z,0.10
2022-12-19T16:23:16.100Z,0.10
2022-12-19T16:25:46.089Z,0.10
2022-12-19T16:28:30.003Z,0.20
2022-12-19T16:30:59.306Z,0.20
2022-12-19T16:33:28.985Z,0.30
2022-12-19T16:36:05.752Z,0.30
2022-12-19T16:38:33.894Z,0.30
2022-12-19T16:41:01.855Z,0.30
2022-12-19T16:43:29.006Z,0.30
2022-12-19T16:46:00.747Z,0.20
2022-12-19T16:48:30.445Z,0.20
2022-12-19T16:51:02.077Z,0.20
2022-12-19T16:53:29.597Z,0.10
2022-12-19T16:55:57.294Z,0.10
2022-12-19T16:58:26.515Z,0.10
2022-12-19T17:00:55.308Z,0.00
2022-12-19T17:03:41.149Z,0.10
2022-12-19T17:06:17.344Z,0.10
2022-12-19T17:08:44.869Z,0.10
2022-12-19T17:11:19.877Z,0.10
2022-12-19T17:13:49.431Z,0.00
2022-12-19T17:16:17.690Z,0.00
2022-12-19T17:18:46.374Z,0.00
2022-12-19T17:21:19.737Z,-0.10
2022-12-19T17:23:46.828Z,0.00
2022-12-19T17:26:17.957Z,0.00
2022-12-19T17:28:48.366Z,-0.10
2022-12-19T17:31:28.533Z,-0.10
2022-12-19T17:33:58.028Z,-0.10
2022-12-19T17:36:32.660Z,-0.10
2022-12-19T17:39:10.767Z,-0.10
2022-12-19T17:41:37.767Z,-0.10
2022-12-19T17:44:05.012Z,-0.20
2022-12-19T17:46:37.769Z,-0.20
2022-12-19T17:49:05.011Z,-0.20
2022-12-19T17:51:31.964Z,-0.20
2022-12-19T17:53:58.995Z,-0.20
2022-12-19T17:56:26.131Z,-0.20
2022-12-19T17:58:53.306Z,-0.20
2022-12-19T18:01:24.829Z,-0.20
2022-12-19T18:03:53.753Z,-0.30
2022-12-19T18:06:21.105Z,-0.30
2022-12-19T18:08:48.401Z,-0.20
2022-12-19T18:11:21.908Z,-0.20
2022-12-19T18:13:49.158Z,-0.20
2022-12-19T18:16:19.773Z,-0.20
2022-12-19T18:18:47.060Z,-0.30
2022-12-19T18:21:16.157Z,-0.30
2022-12-19T18:23:43.810Z,-0.30
2022-12-19T18:26:14.099Z,-0.30
2022-12-19T18:28:42.601Z,-0.30
2022-12-19T18:31:17.650Z,-0.30
2022-12-19T18:33:49.721Z,-0.30
2022-12-19T18:36:22.907Z,-0.30
2022-12-19T18:38:50.573Z,-0.30
2022-12-19T18:41:19.484Z,-0.30
2022-12-19T18:43:47.287Z,-0.30
2022-12-19T18:46:34.742Z,-0.30
2022-12-19T18:49:02.385Z,-0.30
2022-12-19T18:51:31.004Z,-0.20
2022-12-19T18:53:58.774Z,-0.20
2022-12-19T18:56:25.917Z,-0.20
2022-12-19T18:58:53.022Z,-0.20
2022-12-19T19:01:21.966Z,-0.10
2022-12-19T19:03:59.568Z,0.00
2022-12-19T19:06:34.296Z,-0.10
2022-12-19T19:09:06.589Z,0.00
2022-12-19T19:11:33.656Z,0.00
2022-12-19T19:14:01.007Z,0.00
2022-12-19T19:16:29.361Z,0.00
2022-12-19T19:18:59.050Z,0.00
2022-12-19T19:21:36.142Z,0.00
2022-12-19T19:24:13.176Z,0.00
2022-12-19T19:26:40.332Z,-0.10
2022-12-19T19:29:07.643Z,-0.10
2022-12-19T19:31:39.854Z,-0.10
2022-12-19T19:34:17.181Z,-0.10
2022-12-19T19:36:49.755Z,-0.10
2022-12-19T19:39:19.911Z,-0.10
2022-12-19T19:41:47.120Z,-0.10
2022-12-19T19:44:14.307Z,-0.10
2022-12-19T19:46:41.528Z,-0.10
2022-12-19T19:49:08.697Z,-0.10
2022-12-19T19:51:36.472Z,-0.10
2022-12-19T19:54:03.813Z,-0.10
2022-12-19T19:56:31.311Z,0.00
2022-12-19T19:59:00.468Z,0.00
2022-12-19T20:01:28.392Z,0.00
2022-12-19T20:03:56.138Z,0.00
2022-12-19T20:06:23.786Z,0.00
2022-12-19T20:08:51.102Z,-0.10
2022-12-19T20:11:18.464Z,0.00
2022-12-19T20:13:45.934Z,-0.10
2022-12-19T20:16:16.228Z,-0.10
2022-12-19T20:18:48.886Z,-0.10
2022-12-19T20:21:16.807Z,-0.20
2022-12-19T20:23:44.376Z,-0.30
2022-12-19T20:26:13.439Z,-0.30
2022-12-19T20:28:47.895Z,-0.40
2022-12-19T20:31:16.136Z,-0.40
2022-12-19T20:33:43.625Z,-0.40
2022-12-19T20:36:13.056Z,-0.40
2022-12-19T20:38:40.647Z,-0.40
2022-12-19T20:41:08.230Z,-0.30
2022-12-19T20:43:35.776Z,-0.30
2022-12-19T20:46:05.776Z,-0.30
2022-12-19T20:48:33.271Z,-0.30
2022-12-19T20:51:01.872Z,-0.30
2022-12-19T20:53:28.951Z,-0.30
2022-12-19T20:55:59.018Z,-0.30
2022-12-19T20:58:28.320Z,-0.40
2022-12-19T21:00:56.932Z,-0.40
2022-12-19T21:03:28.313Z,-0.50
2022-12-19T21:05:57.054Z,-0.50
2022-12-19T21:08:25.821Z,-0.50
2022-12-19T21:10:54.346Z,-0.50
2022-12-19T21:13:23.052Z,-0.40
2022-12-19T21:15:59.052Z,-0.30
2022-12-19T21:18:27.334Z,-0.30
2022-12-19T21:20:54.929Z,-0.30
2022-12-19T21:23:25.606Z,-0.20
2022-12-19T21:25:56.773Z,-0.20
2022-12-19T21:28:23.941Z,-0.20
2022-12-19T21:31:06.646Z,-0.10
2022-12-19T21:33:34.204Z,-0.10
2022-12-19T21:36:12.937Z,-0.10
2022-12-19T21:38:40.481Z,-0.10
2022-12-19T21:41:08.428Z,-0.10
2022-12-19T21:43:36.810Z,-0.10
2022-12-19T21:46:10.301Z,-0.10
2022-12-19T21:48:42.425Z,0.00
2022-12-19T21:51:10.661Z,0.00
2022-12-19T21:53:38.652Z,0.00
2022-12-19T21:56:24.242Z,0.10
2022-12-19T21:58:56.904Z,0.10
2022-12-19T22:01:25.096Z,0.20
2022-12-19T22:03:52.335Z,0.20
2022-12-19T22:06:27.883Z,0.20
2022-12-19T22:08:55.711Z,0.10
2022-12-19T22:11:23.070Z,0.10
2022-12-19T22:13:50.734Z,0.10
2022-12-19T22:16:18.224Z,0.10
2022-12-19T22:18:45.898Z,0.10
2022-12-19T22:21:15.024Z,0.20
2022-12-19T22:23:42.449Z,0.20
2022-12-19T22:26:11.670Z,0.20
2022-12-19T22:28:42.650Z,0.10
2022-12-19T22:31:30.154Z,0.10
2022-12-19T22:34:06.759Z,0.10
2022-12-19T22:36:36.038Z,0.10
2022-12-19T22:39:05.858Z,0.00
2022-12-19T22:41:34.974Z,0.00
2022-12-19T22:44:02.997Z,-0.10
2022-12-19T22:46:35.367Z,-0.10
2022-12-19T22:49:05.685Z,-0.10
2022-12-19T22:51:34.921Z,-0.10
2022-12-19T22:54:02.086Z,-0.10
2022-12-19T22:56:30.914Z,-0.10
2022-12-19T22:59:02.392Z,0.00
2022-12-19T23:01:37.076Z,0.00
2022-12-19T23:04:05.828Z,0.10
2022-12-19T23:06:35.337Z,0.10
2022-12-19T23:09:02.656Z,0.10
2022-12-19T23:11:33.873Z,0.10
2022-12-19T23:14:02.601Z,0.10
2022-12-19T23:16:30.352Z,0.10
2022-12-19T23:18:57.649Z,0.10
2022-12-19T23:21:25.775Z,0.10
2022-12-19T23:23:54.596Z,0.10
2022-12-19T23:26:32.022Z,0.20
2022-12-19T23:29:18.223Z,0.20
2022-12-19T23:31:47.078Z,0.20
2022-12-19T23:34:15.315Z,0.20
2022-12-19T23:39:29.279Z,0.30
2022-12-19T23:41:56.336Z,0.40
2022-12-19T23:44:23.442Z,0.40
2022-12-19T23:46:50.504Z,0.50
2022-12-19T23:49:17.523Z,0.50
2022-12-19T23:51:44.638Z,0.50
2022-12-19T23:54:11.619Z,0.60
2022-12-19T23:56:38.627Z,0.50
2022-12-19T23:59:05.690Z,0.50
